createdAt,value
2022-11-28T00:00:58.445Z,80.72
2022-11-28T00:01:58.434Z,80.82
2022-11-28T00:02:58.479Z,80.62
2022-11-28T00:03:58.427Z,80.62
2022-11-28T00:04:58.362Z,80.82
2022-11-28T00:05:58.369Z,80.72
2022-11-28T00:06:58.333Z,80.51
2022-11-28T00:07:58.394Z,80.41
2022-11-28T00:08:58.321Z,80.20
2022-11-28T00:09:58.361Z,80.00
2022-11-28T00:10:58.293Z,80.00
2022-11-28T00:11:58.300Z,80.20
2022-11-28T00:12:58.275Z,80.00
2022-11-28T00:13:58.491Z,79.90
2022-11-28T00:14:58.261Z,80.10
2022-11-28T00:15:58.349Z,79.79
2022-11-28T00:16:58.222Z,79.69
2022-11-28T00:17:58.230Z,79.58
2022-11-28T00:18:58.227Z,79.58
2022-11-28T00:19:58.205Z,79.27
2022-11-28T00:20:58.207Z,78.97
2022-11-28T00:21:58.196Z,79.07
2022-11-28T00:22:58.161Z,78.86
2022-11-28T00:23:58.170Z,78.86
2022-11-28T00:24:58.164Z,78.72
2022-11-28T00:25:58.144Z,78.93
2022-11-28T00:26:58.142Z,78.41
2022-11-28T00:27:58.140Z,78.41
2022-11-28T00:28:58.108Z,78.62
2022-11-28T00:29:58.163Z,77.90
2022-11-28T00:30:58.099Z,77.90
2022-11-28T00:31:58.148Z,77.59
2022-11-28T00:32:58.065Z,77.38
2022-11-28T00:33:58.071Z,77.48
2022-11-28T00:34:58.039Z,77.18
2022-11-28T00:35:58.045Z,77.28
2022-11-28T00:36:58.011Z,77.48
2022-11-28T00:37:58.013Z,77.69
2022-11-28T00:38:58.004Z,77.48
2022-11-28T00:39:58.003Z,77.48
2022-11-28T00:40:57.986Z,77.48
2022-11-28T00:41:57.976Z,77.59
2022-11-28T00:42:57.958Z,77.48
2022-11-28T00:48:46.035Z,77.48
2022-11-28T00:49:46.014Z,77.48
2022-11-28T00:50:45.976Z,77.28
2022-11-28T00:51:45.869Z,77.18
2022-11-28T00:52:46.104Z,76.97
2022-11-28T00:53:46.389Z,77.08
2022-11-28T00:54:45.874Z,76.97
2022-11-28T00:55:45.808Z,77.08
2022-11-28T00:56:45.975Z,77.28
2022-11-28T00:57:46.048Z,76.97
2022-11-28T00:58:46.136Z,76.87
2022-11-28T00:59:45.789Z,76.97
2022-11-28T01:00:46.115Z,77.08
2022-11-28T01:01:46.056Z,76.97
2022-11-28T01:02:45.890Z,76.97
2022-11-28T01:03:45.857Z,76.76
2022-11-28T01:04:45.786Z,76.56
2022-11-28T01:05:45.808Z,76.25
2022-11-28T01:06:45.791Z,76.15
2022-11-28T01:07:45.869Z,76.25
2022-11-28T01:08:45.780Z,76.15
2022-11-28T01:09:45.811Z,76.66
2022-11-28T01:10:45.916Z,76.76
2022-11-28T01:11:45.649Z,76.97
2022-11-28T01:12:45.664Z,76.87
2022-11-28T01:13:45.716Z,77.38
2022-11-28T01:14:46.269Z,77.69
2022-11-28T01:15:45.605Z,77.69
2022-11-28T01:16:45.658Z,78.52
2022-11-28T01:17:45.559Z,78.62
2022-11-28T01:18:45.597Z,78.93
2022-11-28T01:19:45.704Z,79.48
2022-11-28T01:20:45.685Z,79.79
2022-11-28T01:21:45.727Z,80.41
2022-11-28T01:22:45.536Z,80.20
2022-11-28T01:23:45.531Z,80.41
2022-11-28T01:24:45.495Z,80.93
2022-11-28T01:25:45.570Z,81.13
2022-11-28T01:26:45.528Z,81.48
2022-11-28T01:27:45.561Z,81.37
2022-11-28T01:28:45.459Z,81.99
2022-11-28T01:29:45.446Z,82.10
2022-11-28T01:30:45.438Z,81.89
2022-11-28T01:31:45.581Z,81.58
2022-11-28T01:32:45.437Z,81.79
2022-11-28T01:33:45.414Z,81.99
2022-11-28T01:34:45.424Z,81.79
2022-11-28T01:35:45.374Z,81.58
2022-11-28T01:36:45.385Z,81.58
2022-11-28T01:37:46.109Z,81.27
2022-11-28T01:38:45.376Z,80.76
2022-11-28T01:39:45.399Z,80.86
2022-11-28T01:40:45.323Z,81.07
2022-11-28T01:41:45.331Z,81.48
2022-11-28T01:42:45.322Z,81.37
2022-11-28T01:43:45.287Z,80.86
2022-11-28T01:44:45.354Z,80.76
2022-11-28T01:45:45.302Z,80.76
2022-11-28T01:46:45.300Z,80.55
2022-11-28T01:47:45.950Z,80.34
2022-11-28T01:48:45.270Z,80.34
2022-11-28T01:49:45.434Z,80.55
2022-11-28T01:50:45.238Z,80.44
2022-11-28T01:51:45.251Z,80.55
2022-11-28T01:52:45.259Z,80.55
2022-11-28T01:53:45.282Z,80.24
2022-11-28T01:54:45.186Z,80.14
2022-11-28T01:55:45.244Z,79.93
2022-11-28T01:56:45.261Z,79.93
2022-11-28T01:57:45.141Z,80.04
2022-11-28T01:58:45.851Z,80.14
2022-11-28T01:59:45.185Z,80.34
2022-11-28T02:00:45.217Z,80.14
2022-11-28T02:01:45.171Z,79.93
2022-11-28T02:02:45.300Z,79.41
2022-11-28T02:03:45.071Z,79.83
2022-11-28T02:04:45.097Z,80.24
2022-11-28T02:05:45.072Z,80.44
2022-11-28T02:06:45.079Z,80.34
2022-11-28T02:07:46.110Z,80.24
2022-11-28T02:08:45.044Z,80.34
2022-11-28T02:09:45.029Z,80.24
2022-11-28T02:10:45.084Z,79.93
2022-11-28T02:11:45.011Z,80.04
2022-11-28T02:12:44.991Z,80.34
2022-11-28T02:13:45.155Z,80.24
2022-11-28T02:14:45.094Z,80.24
2022-11-28T02:15:44.957Z,80.24
2022-11-28T02:16:44.990Z,80.65
2022-11-28T02:17:45.074Z,81.07
2022-11-28T02:18:50.429Z,80.55
2022-11-28T02:19:45.962Z,80.34
2022-11-28T02:20:45.862Z,80.65
2022-11-28T02:21:44.932Z,80.34
2022-11-28T02:22:44.930Z,80.24
2022-11-28T02:23:44.951Z,80.44
2022-11-28T02:24:44.920Z,80.24
2022-11-28T02:25:44.893Z,80.24
2022-11-28T02:26:44.954Z,80.24
2022-11-28T02:27:44.914Z,80.34
2022-11-28T02:28:44.915Z,80.44
2022-11-28T02:29:44.803Z,80.44
2022-11-28T02:30:44.854Z,80.76
2022-11-28T02:31:45.052Z,81.17
2022-11-28T02:32:44.849Z,81.48
2022-11-28T02:33:44.868Z,81.79
2022-11-28T02:34:47.048Z,82.10
2022-11-28T02:35:44.790Z,82.14
2022-11-28T02:36:44.740Z,82.55
2022-11-28T02:37:44.797Z,82.86
2022-11-28T02:38:44.865Z,83.68
2022-11-28T02:39:44.720Z,83.99
2022-11-28T02:40:44.924Z,84.09
2022-11-28T02:41:44.838Z,84.61
2022-11-28T02:42:44.701Z,85.13
2022-11-28T02:43:44.734Z,85.13
2022-11-28T02:44:45.183Z,85.33
2022-11-28T02:45:44.754Z,85.99
2022-11-28T02:46:44.700Z,86.30
2022-11-28T02:47:44.605Z,85.89
2022-11-28T02:48:44.618Z,85.78
2022-11-28T02:49:44.576Z,86.30
2022-11-28T02:50:44.677Z,87.02
2022-11-28T02:51:44.675Z,87.34
2022-11-28T02:52:44.594Z,87.54
2022-11-28T02:53:44.691Z,87.44
2022-11-28T02:54:45.331Z,87.34
2022-11-28T02:55:44.544Z,87.74
2022-11-28T02:56:44.556Z,88.06
2022-11-28T02:57:44.620Z,88.26
2022-11-28T02:58:44.523Z,88.26
2022-11-28T02:59:44.485Z,88.26
2022-11-28T03:00:44.530Z,87.79
2022-11-28T03:01:44.520Z,87.44
2022-11-28T03:02:44.463Z,87.02
2022-11-28T03:03:44.435Z,86.51
2022-11-28T03:04:44.982Z,86.10
2022-11-28T03:05:44.416Z,86.10
2022-11-28T03:06:44.426Z,86.41
2022-11-28T03:07:44.451Z,85.89
2022-11-28T03:08:44.395Z,85.37
2022-11-28T03:09:44.384Z,85.06
2022-11-28T03:10:44.368Z,84.65
2022-11-28T03:11:44.358Z,84.13
2022-11-28T03:12:44.394Z,84.03
2022-11-28T03:13:44.357Z,83.68
2022-11-28T03:14:44.609Z,83.37
2022-11-28T03:15:44.326Z,83.27
2022-11-28T03:16:44.433Z,82.45
2022-11-28T03:17:44.290Z,82.34
2022-11-28T03:18:44.362Z,81.72
2022-11-28T03:19:44.333Z,81.41
2022-11-28T03:20:44.307Z,80.79
2022-11-28T03:21:44.263Z,80.69
2022-11-28T03:22:44.233Z,80.48
2022-11-28T03:23:44.243Z,80.69
2022-11-28T03:24:44.439Z,80.38
2022-11-28T03:25:44.203Z,80.48
2022-11-28T03:26:44.220Z,80.44
2022-11-28T03:27:44.224Z,80.24
2022-11-28T03:28:44.210Z,79.52
2022-11-28T03:29:44.164Z,79.52
2022-11-28T03:30:44.170Z,79.72
2022-11-28T03:31:44.206Z,80.14
2022-11-28T03:32:44.130Z,80.24
2022-11-28T03:33:44.140Z,80.04
2022-11-28T03:34:44.478Z,79.62
2022-11-28T03:35:44.266Z,79.93
2022-11-28T03:36:44.111Z,79.72
2022-11-28T03:37:44.080Z,79.62
2022-11-28T03:38:44.058Z,79.93
2022-11-28T03:39:44.084Z,79.83
2022-11-28T03:40:44.168Z,80.04
2022-11-28T03:41:44.042Z,79.93
2022-11-28T03:42:44.025Z,80.76
2022-11-28T03:43:44.024Z,81.68
2022-11-28T03:44:44.299Z,81.27
2022-11-28T03:45:44.003Z,82.24
2022-11-28T03:46:44.070Z,83.06
2022-11-28T03:47:43.979Z,82.65
2022-11-28T03:48:43.955Z,82.96
2022-11-28T03:49:43.956Z,83.68
2022-11-28T03:50:43.929Z,84.09
2022-11-28T03:51:43.949Z,84.81
2022-11-28T03:52:43.925Z,85.06
2022-11-28T03:53:43.908Z,85.37
2022-11-28T03:54:44.173Z,85.27
2022-11-28T03:55:43.990Z,85.89
2022-11-28T03:56:43.875Z,86.20
2022-11-28T03:57:43.868Z,86.30
2022-11-28T03:58:43.898Z,85.89
2022-11-28T03:59:44.054Z,85.78
2022-11-28T04:00:44.071Z,86.20
2022-11-28T04:01:43.973Z,86.71
2022-11-28T04:02:43.876Z,86.96
2022-11-28T04:03:43.836Z,86.65
2022-11-28T04:04:44.091Z,87.07
2022-11-28T04:05:43.792Z,87.27
2022-11-28T04:06:43.842Z,87.79
2022-11-28T04:07:43.825Z,87.37
2022-11-28T04:08:43.798Z,87.27
2022-11-28T04:09:43.951Z,87.79
2022-11-28T04:10:43.845Z,87.99
2022-11-28T04:11:43.851Z,87.68
2022-11-28T04:12:43.740Z,87.68
2022-11-28T04:13:43.731Z,87.99
2022-11-28T04:14:44.073Z,88.31
2022-11-28T04:15:43.756Z,88.51
2022-11-28T04:16:43.720Z,88.71
2022-11-28T04:17:43.645Z,88.61
2022-11-28T04:18:43.664Z,88.41
2022-11-28T04:19:43.893Z,88.20
2022-11-28T04:20:43.627Z,87.89
2022-11-28T04:21:43.621Z,88.20
2022-11-28T04:22:43.625Z,88.31
2022-11-28T04:23:43.652Z,88.71
2022-11-28T04:24:43.857Z,88.41
2022-11-28T04:25:43.604Z,88.51
2022-11-28T04:26:43.581Z,88.51
2022-11-28T04:27:43.550Z,88.82
2022-11-28T04:28:43.526Z,88.92
2022-11-28T04:29:43.556Z,88.61
2022-11-28T04:30:43.623Z,88.41
2022-11-28T04:31:43.543Z,88.31
2022-11-28T04:32:43.489Z,88.20
2022-11-28T04:33:43.488Z,88.41
2022-11-28T04:34:43.845Z,88.82
2022-11-28T04:35:43.469Z,89.13
2022-11-28T04:36:43.434Z,89.03
2022-11-28T04:37:43.566Z,89.23
2022-11-28T04:38:43.417Z,89.75
2022-11-28T04:39:43.426Z,90.37
2022-11-28T04:40:43.429Z,90.62
2022-11-28T04:41:43.399Z,90.93
2022-11-28T04:42:43.374Z,90.93
2022-11-28T04:43:43.393Z,90.62
2022-11-28T04:44:43.646Z,90.20
2022-11-28T04:45:43.477Z,89.79
2022-11-28T04:46:43.330Z,89.69
2022-11-28T04:47:43.326Z,89.69
2022-11-28T04:48:43.305Z,89.59
2022-11-28T04:49:43.340Z,90.00
2022-11-28T04:50:43.303Z,90.41
2022-11-28T04:51:43.338Z,90.52
2022-11-28T04:52:43.264Z,90.41
2022-11-28T04:53:43.273Z,90.52
2022-11-28T04:54:43.531Z,90.62
2022-11-28T04:55:43.243Z,90.72
2022-11-28T05:14:08.343Z,85.06
2022-11-28T05:15:07.773Z,84.65
2022-11-28T05:16:07.852Z,85.17
2022-11-28T05:17:07.763Z,85.37
2022-11-28T05:18:07.720Z,85.78
2022-11-28T05:19:07.733Z,85.68
2022-11-28T05:20:07.694Z,85.68
2022-11-28T05:21:07.691Z,85.47
2022-11-28T05:22:07.969Z,85.17
2022-11-28T05:23:07.856Z,85.06
2022-11-28T05:24:07.724Z,85.06
2022-11-28T05:25:07.777Z,84.96
2022-11-28T05:26:07.762Z,85.17
2022-11-28T05:27:07.760Z,85.27
2022-11-28T05:28:07.685Z,84.75
2022-11-28T05:29:07.875Z,84.75
2022-11-28T05:30:07.753Z,85.06
2022-11-28T05:31:07.740Z,85.37
2022-11-28T05:32:07.611Z,85.68
2022-11-28T05:33:07.574Z,85.99
2022-11-28T05:34:07.570Z,86.20
2022-11-28T05:35:07.724Z,85.99
2022-11-28T05:36:12.546Z,86.41
2022-11-28T05:37:08.609Z,87.44
2022-11-28T05:38:12.195Z,87.85
2022-11-28T05:39:08.529Z,88.57
2022-11-28T05:40:07.553Z,88.78
2022-11-28T05:41:07.489Z,88.98
2022-11-28T05:42:07.514Z,89.40
2022-11-28T05:43:07.450Z,89.95
2022-11-28T05:44:07.457Z,90.06
2022-11-28T05:45:07.599Z,90.06
2022-11-28T05:46:07.437Z,90.26
2022-11-28T05:47:07.459Z,90.58
2022-11-28T05:48:07.413Z,90.78
2022-11-28T05:49:07.508Z,90.89
2022-11-28T05:50:07.461Z,91.09
2022-11-28T05:51:07.498Z,91.30
2022-11-28T05:52:07.364Z,91.61
2022-11-28T05:53:07.550Z,91.82
2022-11-28T05:54:07.366Z,91.61
2022-11-28T05:55:07.334Z,91.09
2022-11-28T05:56:07.344Z,90.47
2022-11-28T05:57:07.341Z,90.26
2022-11-28T05:58:07.285Z,89.65
2022-11-28T05:59:07.307Z,89.13
2022-11-28T06:00:07.257Z,88.51
2022-11-28T06:01:07.287Z,88.37
2022-11-28T06:02:07.312Z,88.68
2022-11-28T06:03:07.285Z,88.57
2022-11-28T06:04:07.269Z,89.40
2022-11-28T06:05:27.373Z,89.61
2022-11-28T06:06:08.423Z,88.89
2022-11-28T06:07:07.259Z,88.16
2022-11-28T06:08:07.175Z,87.54
2022-11-28T06:09:07.194Z,87.44
2022-11-28T06:10:07.161Z,87.74
2022-11-28T06:11:07.164Z,87.54
2022-11-28T06:12:07.125Z,87.23
2022-11-28T06:13:07.161Z,87.34
2022-11-28T06:14:07.195Z,87.54
2022-11-28T06:15:07.102Z,87.54
2022-11-28T06:16:08.201Z,87.13
2022-11-28T06:17:07.083Z,86.30
2022-11-28T06:18:07.117Z,86.20
2022-11-28T06:19:07.055Z,86.61
2022-11-28T06:20:07.142Z,87.13
2022-11-28T06:21:07.176Z,87.54
2022-11-28T06:22:07.057Z,87.95
2022-11-28T06:23:07.141Z,88.16
2022-11-28T06:24:07.117Z,87.65
2022-11-28T06:25:07.005Z,87.54
2022-11-28T06:26:07.005Z,87.85
2022-11-28T06:27:06.992Z,88.37
2022-11-28T06:28:06.979Z,88.51
2022-11-28T06:29:06.960Z,88.82
2022-11-28T06:30:06.970Z,89.23
2022-11-28T06:31:06.939Z,89.44
2022-11-28T06:32:06.968Z,89.34
2022-11-28T06:33:06.919Z,89.23
2022-11-28T06:34:07.029Z,89.34
2022-11-28T06:35:07.044Z,89.75
2022-11-28T06:36:07.052Z,89.95
2022-11-28T06:37:06.884Z,89.65
2022-11-28T06:38:11.426Z,89.65
2022-11-28T06:39:07.956Z,89.86
2022-11-28T06:40:06.983Z,90.06
2022-11-28T06:41:06.832Z,90.31
2022-11-28T06:42:06.953Z,90.62
2022-11-28T06:43:06.913Z,90.93
2022-11-28T06:44:06.924Z,91.03
2022-11-28T06:45:13.808Z,91.03
2022-11-28T06:46:06.855Z,90.72
2022-11-28T06:47:06.768Z,90.83
2022-11-28T06:48:06.766Z,91.13
2022-11-28T06:49:06.753Z,91.24
2022-11-28T06:50:06.755Z,91.55
2022-11-28T06:51:06.735Z,91.75
2022-11-28T06:52:06.930Z,91.75
2022-11-28T06:53:06.692Z,91.59
2022-11-28T06:54:06.700Z,91.59
2022-11-28T06:55:06.681Z,91.75
2022-11-28T06:56:06.679Z,92.00
2022-11-28T06:57:06.667Z,92.00
2022-11-28T06:58:06.668Z,92.11
2022-11-28T06:59:06.625Z,92.11
2022-11-28T07:00:06.686Z,92.32
2022-11-28T07:01:06.644Z,92.63
2022-11-28T07:02:07.979Z,92.83
2022-11-28T07:03:06.602Z,92.52
2022-11-28T07:04:06.598Z,92.42
2022-11-28T07:05:06.569Z,92.32
2022-11-28T07:06:06.585Z,92.42
2022-11-28T07:07:06.544Z,92.63
2022-11-28T07:08:06.622Z,92.83
2022-11-28T07:09:06.522Z,92.93
2022-11-28T07:10:06.524Z,93.04
2022-11-28T07:11:06.506Z,93.04
2022-11-28T07:12:06.526Z,93.04
2022-11-28T07:13:06.492Z,92.93
2022-11-28T07:14:06.480Z,92.83
2022-11-28T07:15:06.484Z,92.93
2022-11-28T07:16:06.492Z,92.83
2022-11-28T07:17:06.631Z,92.72
2022-11-28T07:18:06.563Z,92.72
2022-11-28T07:19:06.430Z,93.04
2022-11-28T07:20:06.493Z,93.35
2022-11-28T07:21:06.409Z,93.66
2022-11-28T07:22:06.438Z,93.76
2022-11-28T07:23:06.378Z,93.76
2022-11-28T07:24:06.385Z,93.76
2022-11-28T07:25:06.369Z,93.87
2022-11-28T07:26:06.372Z,94.07
2022-11-28T07:27:06.379Z,94.38
2022-11-28T07:28:06.328Z,94.38
2022-11-28T07:29:06.317Z,94.48
2022-11-28T07:30:06.349Z,94.69
2022-11-28T07:31:06.296Z,95.00
2022-11-28T07:32:06.411Z,95.21
2022-11-28T07:33:06.261Z,95.42
2022-11-28T07:34:06.273Z,95.52
2022-11-28T07:35:06.281Z,95.62
2022-11-28T07:36:06.260Z,95.73
2022-11-28T07:37:06.246Z,95.83
2022-11-28T07:38:06.226Z,95.94
2022-11-28T07:39:06.251Z,95.94
2022-11-28T07:40:06.238Z,95.94
2022-11-28T07:41:06.197Z,96.14
2022-11-28T07:42:06.216Z,96.24
2022-11-28T07:43:06.178Z,96.45
2022-11-28T07:44:06.187Z,96.55
2022-11-28T07:45:06.153Z,96.66
2022-11-28T07:46:06.215Z,96.76
2022-11-28T07:47:06.200Z,96.97
2022-11-28T07:48:06.134Z,97.07
2022-11-28T07:49:06.146Z,97.32
2022-11-28T07:50:06.118Z,97.49
2022-11-28T07:51:06.080Z,97.63
2022-11-28T07:52:06.066Z,97.74
2022-11-28T07:53:07.412Z,97.84
2022-11-28T07:54:06.077Z,97.94
2022-11-28T07:55:06.046Z,98.05
2022-11-28T07:56:06.075Z,98.15
2022-11-28T07:57:13.633Z,98.25
2022-11-28T07:58:07.023Z,98.35
2022-11-28T07:59:05.998Z,98.46
2022-11-28T08:00:05.996Z,98.56
2022-11-28T08:01:05.981Z,98.56
2022-11-28T08:02:06.011Z,98.66
2022-11-28T08:03:05.975Z,98.77
2022-11-28T08:04:05.987Z,98.66
2022-11-28T08:05:06.053Z,98.66
2022-11-28T08:06:05.940Z,98.56
2022-11-28T08:07:05.906Z,98.56
2022-11-28T08:08:06.054Z,98.46
2022-11-28T08:09:05.890Z,98.56
2022-11-28T08:10:05.940Z,98.66
2022-11-28T08:11:05.854Z,98.62
2022-11-28T08:13:05.850Z,98.83
2022-11-28T08:14:05.876Z,98.93
2022-11-28T08:15:05.875Z,98.93
2022-11-28T08:16:05.840Z,99.04
2022-11-28T08:17:05.894Z,99.14
2022-11-28T08:18:05.815Z,99.24
2022-11-28T08:19:05.791Z,99.24
2022-11-28T08:20:06.713Z,99.34
2022-11-28T08:21:05.799Z,99.44
2022-11-28T08:22:05.774Z,99.55
2022-11-28T08:23:05.758Z,99.55
2022-11-28T08:24:05.739Z,99.55
2022-11-28T08:25:05.719Z,99.65
2022-11-28T08:26:05.739Z,99.65
2022-11-28T08:27:05.703Z,99.65
2022-11-28T08:28:05.707Z,99.55
2022-11-28T08:29:05.758Z,99.65
2022-11-28T08:30:05.734Z,99.65
2022-11-28T08:31:05.746Z,99.76
2022-11-28T08:32:05.678Z,100.00
2022-11-28T08:33:05.672Z,99.86
2022-11-28T08:34:05.640Z,99.96
2022-11-28T08:35:05.622Z,99.99
2022-11-28T08:36:05.635Z,99.99
2022-11-28T08:37:05.612Z,99.99
2022-11-28T08:38:05.611Z,99.99
2022-11-28T08:40:06.619Z,99.99
2022-11-28T08:41:05.553Z,99.99
2022-11-28T08:42:05.557Z,99.99
2022-11-28T08:43:05.533Z,99.99
2022-11-28T08:44:05.524Z,99.99
2022-11-28T08:45:05.522Z,99.99
2022-11-28T08:46:05.563Z,99.99
2022-11-28T08:47:05.478Z,99.99
2022-11-28T08:48:05.495Z,99.99
2022-11-28T08:49:05.469Z,99.99
2022-11-28T08:50:05.453Z,99.99
2022-11-28T08:51:05.550Z,99.99
2022-11-28T08:52:05.471Z,99.99
2022-11-28T08:53:08.225Z,0.00
2022-11-28T08:54:05.455Z,99.99
2022-11-28T08:55:05.415Z,99.99
2022-11-28T08:56:05.418Z,99.99
2022-11-28T08:57:05.465Z,0.00
2022-11-28T08:58:05.391Z,99.99
2022-11-28T08:59:05.357Z,99.99
2022-11-28T09:00:05.396Z,99.99
2022-11-28T09:01:05.431Z,99.99
2022-11-28T09:02:05.359Z,99.99
2022-11-28T09:03:05.322Z,99.99
2022-11-28T09:04:05.406Z,99.99
2022-11-28T09:05:05.305Z,99.99
2022-11-28T09:06:05.296Z,99.99
2022-11-28T09:07:05.300Z,99.99
2022-11-28T09:08:10.158Z,99.99
2022-11-28T09:09:06.271Z,99.99
2022-11-28T09:10:05.264Z,99.99
2022-11-28T09:11:05.240Z,99.99
2022-11-28T09:12:05.237Z,99.99
2022-11-28T09:13:05.223Z,99.96
2022-11-28T09:14:05.205Z,99.96
2022-11-28T09:15:05.199Z,99.86
2022-11-28T09:16:05.253Z,99.76
2022-11-28T09:17:05.233Z,99.40
2022-11-28T09:18:05.184Z,99.24
2022-11-28T09:19:05.153Z,98.99
2022-11-28T09:20:05.146Z,98.88
2022-11-28T09:21:05.123Z,98.78
2022-11-28T09:22:06.425Z,98.68
2022-11-28T09:23:05.123Z,98.47
2022-11-28T09:24:05.104Z,98.47
2022-11-28T09:25:05.085Z,98.37
2022-11-28T09:26:05.090Z,98.27
2022-11-28T09:27:05.083Z,98.22
2022-11-28T09:28:05.066Z,98.22
2022-11-28T09:29:05.054Z,98.22
2022-11-28T09:30:05.058Z,98.22
2022-11-28T09:31:05.154Z,98.22
2022-11-28T09:32:05.054Z,98.11
2022-11-28T09:33:05.009Z,97.91
2022-11-28T09:34:05.005Z,97.91
2022-11-28T09:35:04.972Z,97.71
2022-11-28T09:36:04.980Z,97.60
2022-11-28T09:37:05.252Z,97.50
2022-11-28T09:38:04.969Z,97.39
2022-11-28T09:39:04.949Z,97.50
2022-11-28T09:40:13.352Z,97.50
2022-11-28T09:41:05.916Z,97.39
2022-11-28T09:42:04.910Z,97.39
2022-11-28T09:43:04.901Z,97.29
2022-11-28T09:44:04.878Z,97.25
2022-11-28T09:45:04.874Z,97.25
2022-11-28T09:46:04.887Z,97.14
2022-11-28T09:47:04.873Z,97.14
2022-11-28T09:48:04.876Z,97.14
2022-11-28T09:49:04.850Z,96.83
2022-11-28T09:50:04.909Z,96.62
2022-11-28T09:51:04.824Z,96.52
2022-11-28T09:52:04.946Z,96.52
2022-11-28T09:53:05.455Z,96.31
2022-11-28T09:54:04.787Z,96.42
2022-11-28T09:55:04.775Z,96.62
2022-11-28T09:56:04.774Z,96.83
2022-11-28T09:57:04.744Z,96.94
2022-11-28T09:58:04.732Z,97.09
2022-11-28T09:59:04.729Z,97.20
2022-11-28T10:00:04.800Z,97.20
2022-11-28T10:01:04.695Z,97.09
2022-11-28T10:02:04.729Z,96.89
2022-11-28T10:03:04.688Z,96.79
2022-11-28T10:04:04.841Z,96.69
2022-11-28T10:05:04.807Z,96.58
2022-11-28T10:06:04.664Z,96.58
2022-11-28T10:07:04.677Z,96.58
2022-11-28T10:08:04.741Z,96.58
2022-11-28T10:09:04.625Z,96.58
2022-11-28T10:10:04.614Z,96.48
2022-11-28T10:11:04.600Z,96.48
2022-11-28T10:12:04.629Z,96.48
2022-11-28T10:13:04.568Z,96.27
2022-11-28T10:14:08.650Z,96.06
2022-11-28T10:15:04.551Z,95.86
2022-11-28T10:16:04.574Z,96.06
2022-11-28T10:17:04.616Z,96.06
2022-11-28T10:18:04.554Z,96.06
2022-11-28T10:19:04.514Z,95.86
2022-11-28T10:20:04.592Z,95.76
2022-11-28T10:21:04.500Z,95.76
2022-11-28T10:22:04.518Z,95.76
2022-11-28T10:23:04.456Z,95.96
2022-11-28T10:24:05.665Z,96.06
2022-11-28T10:25:04.434Z,96.27
2022-11-28T10:26:04.464Z,96.48
2022-11-28T10:27:04.449Z,96.58
2022-11-28T10:28:04.428Z,96.58
2022-11-28T10:29:04.411Z,96.58
2022-11-28T10:30:04.406Z,96.37
2022-11-28T10:31:04.456Z,96.06
2022-11-28T10:32:04.388Z,95.96
2022-11-28T10:33:04.371Z,95.96
2022-11-28T10:34:04.351Z,96.06
2022-11-28T10:35:04.363Z,95.65
2022-11-28T10:36:04.341Z,95.14
2022-11-28T10:37:04.344Z,94.82
2022-11-28T10:38:04.312Z,94.62
2022-11-28T10:39:08.474Z,94.52
2022-11-28T10:40:05.298Z,94.72
2022-11-28T10:41:04.300Z,94.82
2022-11-28T10:42:04.270Z,94.72
2022-11-28T10:43:04.265Z,94.52
2022-11-28T10:44:04.250Z,94.62
2022-11-28T10:45:04.232Z,94.72
2022-11-28T10:46:04.296Z,94.62
2022-11-28T10:47:04.223Z,94.52
2022-11-28T10:48:37.181Z,94.62
2022-11-28T10:49:05.209Z,94.72
2022-11-28T10:50:04.180Z,94.72
2022-11-28T10:51:04.187Z,94.72
2022-11-28T10:52:04.150Z,94.62
2022-11-28T10:53:04.179Z,94.62
2022-11-28T10:54:04.141Z,94.42
2022-11-28T10:55:04.164Z,94.31
2022-11-28T10:56:08.414Z,93.90
2022-11-28T10:57:05.098Z,93.69
2022-11-28T10:58:04.104Z,93.28
2022-11-28T10:59:04.119Z,92.76
2022-11-28T11:00:04.102Z,92.76
2022-11-28T11:01:04.135Z,92.97
2022-11-28T11:02:04.107Z,93.28
2022-11-28T11:03:04.050Z,93.38
2022-11-28T11:04:04.168Z,93.18
2022-11-28T11:05:04.109Z,93.07
2022-11-28T11:06:04.014Z,92.86
2022-11-28T11:07:10.229Z,92.55
2022-11-28T11:08:05.046Z,92.35
2022-11-28T11:09:03.995Z,92.35
2022-11-28T11:10:03.963Z,92.46
2022-11-28T11:11:03.969Z,92.14
2022-11-28T11:12:03.945Z,91.69
2022-11-28T11:13:03.955Z,91.58
2022-11-28T11:14:03.919Z,91.38
2022-11-28T11:15:03.934Z,91.48
2022-11-28T11:16:04.006Z,91.69
2022-11-28T11:17:03.916Z,91.58
2022-11-28T11:18:03.879Z,91.58
2022-11-28T11:19:03.895Z,91.58
2022-11-28T11:20:03.860Z,91.28
2022-11-28T11:21:03.859Z,90.35
2022-11-28T11:22:03.846Z,89.73
2022-11-28T11:23:03.850Z,88.70
2022-11-28T11:24:03.810Z,88.90
2022-11-28T11:25:03.813Z,89.22
2022-11-28T11:26:04.956Z,89.79
2022-11-28T11:27:03.790Z,90.10
2022-11-28T11:28:03.817Z,90.41
2022-11-28T11:29:03.768Z,90.41
2022-11-28T11:30:03.755Z,90.31
2022-11-28T11:31:03.779Z,90.00
2022-11-28T11:32:03.749Z,89.38
2022-11-28T11:33:03.733Z,89.17
2022-11-28T11:34:03.796Z,89.07
2022-11-28T11:35:03.740Z,89.28
2022-11-28T11:36:03.700Z,89.38
2022-11-28T11:37:03.695Z,89.07
2022-11-28T11:38:03.676Z,88.96
2022-11-28T11:39:03.668Z,88.45
2022-11-28T11:40:03.657Z,88.14
2022-11-28T11:41:03.652Z,87.93
2022-11-28T11:42:03.646Z,88.24
2022-11-28T11:43:03.631Z,88.45
2022-11-28T11:44:03.606Z,88.56
2022-11-28T11:45:03.608Z,88.45
2022-11-28T11:46:03.726Z,88.24
2022-11-28T11:47:04.032Z,88.35
2022-11-28T11:48:03.580Z,88.24
2022-11-28T11:49:03.575Z,88.62
2022-11-28T11:50:03.551Z,88.41
2022-11-28T11:51:03.554Z,87.99
2022-11-28T11:52:04.018Z,87.79
2022-11-28T11:53:03.530Z,88.10
2022-11-28T11:54:03.522Z,88.31
2022-11-28T11:55:03.490Z,88.20
2022-11-28T11:56:03.483Z,87.69
2022-11-28T11:57:31.241Z,87.69
2022-11-28T11:58:06.040Z,87.69
2022-11-28T11:59:03.456Z,87.79
2022-11-28T12:00:03.428Z,87.27
2022-11-28T12:01:03.457Z,87.59
2022-11-28T12:02:03.406Z,87.07
2022-11-28T12:03:03.478Z,86.24
2022-11-28T12:04:17.787Z,86.35
2022-11-28T12:05:04.418Z,86.66
2022-11-28T12:06:18.617Z,86.45
2022-11-28T12:07:04.368Z,85.83
2022-11-28T12:08:03.435Z,86.04
2022-11-28T12:09:03.361Z,86.45
2022-11-28T12:10:04.857Z,86.24
2022-11-28T12:11:03.329Z,86.24
2022-11-28T12:12:03.329Z,86.55
2022-11-28T12:13:03.301Z,86.52
2022-11-28T12:14:03.288Z,86.52
2022-11-28T12:15:03.291Z,86.31
2022-11-28T12:16:03.317Z,85.69
2022-11-28T12:17:19.538Z,85.89
2022-11-28T12:18:04.249Z,85.69
2022-11-28T12:19:03.240Z,84.97
2022-11-28T12:20:03.214Z,85.49
2022-11-28T12:21:03.215Z,85.79
2022-11-28T12:22:03.203Z,85.17
2022-11-28T12:23:03.207Z,85.28
2022-11-28T12:24:03.189Z,85.38
2022-11-28T12:25:03.178Z,85.07
2022-11-28T12:26:03.156Z,85.17
2022-11-28T12:27:03.168Z,85.59
2022-11-28T12:28:03.428Z,85.49
2022-11-28T12:29:03.153Z,85.17
2022-11-28T12:30:03.118Z,85.28
2022-11-28T12:31:03.169Z,84.87
2022-11-28T12:32:03.102Z,85.38
2022-11-28T12:33:03.730Z,85.59
2022-11-28T12:34:03.076Z,85.07
2022-11-28T12:35:03.112Z,85.38
2022-11-28T12:36:03.468Z,85.59
2022-11-28T12:37:03.045Z,85.28
2022-11-28T12:38:10.727Z,85.28
2022-11-28T12:39:04.062Z,85.38
2022-11-28T12:40:03.063Z,85.38
2022-11-28T12:41:03.016Z,84.77
2022-11-28T12:42:03.015Z,84.66
2022-11-28T12:43:02.976Z,84.77
2022-11-28T12:44:03.003Z,85.07
2022-11-28T12:45:02.972Z,84.87
2022-11-28T12:46:02.974Z,85.28
2022-11-28T12:47:02.940Z,85.59
2022-11-28T12:48:02.921Z,85.17
2022-11-28T12:49:02.920Z,84.97
2022-11-28T12:50:02.897Z,85.28
2022-11-28T12:51:02.901Z,84.77
2022-11-28T12:52:02.882Z,84.87
2022-11-28T12:53:02.900Z,85.28
2022-11-28T12:54:02.873Z,84.87
2022-11-28T12:55:02.881Z,84.87
2022-11-28T12:56:02.851Z,85.07
2022-11-28T12:57:02.880Z,85.38
2022-11-28T12:58:06.885Z,85.38
2022-11-28T12:59:02.833Z,85.49
2022-11-28T13:00:08.411Z,85.89
2022-11-28T13:01:03.799Z,85.79
2022-11-28T13:02:08.202Z,85.69
2022-11-28T13:03:03.891Z,86.10
2022-11-28T13:04:02.751Z,85.79
2022-11-28T13:05:02.735Z,85.59
2022-11-28T13:06:02.720Z,85.89
2022-11-28T13:07:02.746Z,85.89
2022-11-28T13:08:02.747Z,86.21
2022-11-28T13:09:02.714Z,86.41
2022-11-28T13:10:02.739Z,86.61
2022-11-28T13:11:02.702Z,86.31
2022-11-28T13:12:02.687Z,85.89
2022-11-28T13:13:02.695Z,86.10
2022-11-28T13:14:02.653Z,86.41
2022-11-28T13:15:02.651Z,85.89
2022-11-28T13:16:02.696Z,85.28
2022-11-28T13:17:02.627Z,85.38